createdAt,value
2022-10-22T00:01:55.006Z,13.70
2022-10-22T00:04:22.583Z,13.70
2022-10-22T00:06:49.750Z,13.70
2022-10-22T00:09:17.009Z,13.70
2022-10-22T00:11:44.191Z,13.70
2022-10-22T00:14:11.883Z,13.70
2022-10-22T00:16:39.019Z,13.70
2022-10-22T00:19:06.141Z,13.70
2022-10-22T00:21:33.272Z,13.70
2022-10-22T00:24:00.475Z,13.70
2022-10-22T00:26:27.681Z,13.70
2022-10-22T00:28:54.961Z,13.70
2022-10-22T00:31:22.138Z,13.70
2022-10-22T00:33:49.273Z,13.70
2022-10-22T00:36:16.718Z,13.70
2022-10-22T00:38:43.876Z,13.70
2022-10-22T00:41:11.066Z,13.70
2022-10-22T00:44:01.095Z,13.70
2022-10-22T00:46:28.390Z,13.70
2022-10-22T00:48:56.621Z,13.70
2022-10-22T00:51:25.486Z,13.70
2022-10-22T00:53:56.018Z,13.70
2022-10-22T00:56:23.943Z,13.70
2022-10-22T00:58:56.451Z,13.70
2022-10-22T01:01:26.194Z,13.60
2022-10-22T01:03:53.478Z,13.60
2022-10-22T01:06:34.978Z,13.60
2022-10-22T01:09:05.145Z,13.60
2022-10-22T01:12:15.408Z,13.60
2022-10-22T01:15:41.488Z,13.60
2022-10-22T01:18:45.227Z,13.60
2022-10-22T01:22:14.964Z,13.60
2022-10-22T01:24:54.131Z,13.60
2022-10-22T01:33:45.630Z,13.60
2022-10-22T01:36:12.986Z,13.60
2022-10-22T01:38:40.259Z,13.60
2022-10-22T01:41:07.535Z,13.60
2022-10-22T01:43:34.668Z,13.60
2022-10-22T01:46:03.609Z,13.60
2022-10-22T01:48:49.490Z,13.60
2022-10-22T01:51:31.594Z,13.50
2022-10-22T01:54:13.707Z,13.60
2022-10-22T01:56:59.777Z,13.60
2022-10-22T01:59:50.891Z,13.50
2022-10-22T02:02:36.654Z,13.50
2022-10-22T02:05:06.955Z,13.50
2022-10-22T02:07:41.596Z,13.50
2022-10-22T02:10:09.058Z,13.50
2022-10-22T02:12:36.237Z,13.50
2022-10-22T02:15:04.152Z,13.50
2022-10-22T02:17:32.905Z,13.50
2022-10-22T02:20:03.866Z,13.50
2022-10-22T02:22:30.997Z,13.50
2022-10-22T02:24:58.131Z,13.50
2022-10-22T02:27:30.997Z,13.40
2022-10-22T02:30:11.484Z,13.50
2022-10-22T02:32:46.598Z,13.50
2022-10-22T02:35:17.670Z,13.50
2022-10-22T02:37:44.795Z,13.40
2022-10-22T02:40:12.006Z,13.50
2022-10-22T02:42:39.742Z,13.50
2022-10-22T02:45:07.346Z,13.50
2022-10-22T02:47:34.480Z,13.40
2022-10-22T02:50:03.568Z,13.50
2022-10-22T02:52:31.628Z,13.40
2022-10-22T02:54:58.798Z,13.50
2022-10-22T02:57:25.981Z,13.40
2022-10-22T02:59:53.117Z,13.40
2022-10-22T03:02:20.253Z,13.40
2022-10-22T03:04:47.370Z,13.40
2022-10-22T03:07:14.856Z,13.40
2022-10-22T03:09:42.126Z,13.40
2022-10-22T03:12:09.264Z,13.40
2022-10-22T03:14:36.411Z,13.40
2022-10-22T03:17:03.536Z,13.40
2022-10-22T03:19:30.790Z,13.40
2022-10-22T03:22:01.081Z,13.40
2022-10-22T03:24:34.572Z,13.40
2022-10-22T03:27:01.702Z,13.40
2022-10-22T03:29:28.921Z,13.40
2022-10-22T03:31:56.067Z,13.40
2022-10-22T03:34:23.457Z,13.30
2022-10-22T03:36:51.210Z,13.40
2022-10-22T03:39:18.336Z,13.30
2022-10-22T03:41:45.951Z,13.30
2022-10-22T03:44:13.113Z,13.30
2022-10-22T03:46:40.262Z,13.30
2022-10-22T03:49:07.388Z,13.20
2022-10-22T03:51:35.745Z,13.20
2022-10-22T03:54:03.427Z,13.20
2022-10-22T03:56:30.568Z,13.20
2022-10-22T03:58:58.171Z,13.10
2022-10-22T04:01:25.420Z,13.10
2022-10-22T04:03:52.745Z,13.10
2022-10-22T04:06:19.876Z,13.00
2022-10-22T04:08:47.135Z,12.90
2022-10-22T04:11:14.540Z,12.90
2022-10-22T04:13:41.935Z,12.90
2022-10-22T04:16:11.897Z,12.80
2022-10-22T04:18:39.328Z,12.70
2022-10-22T04:21:07.422Z,12.70
2022-10-22T04:23:34.570Z,12.70
2022-10-22T04:26:04.116Z,12.70
2022-10-22T04:28:31.255Z,12.60
2022-10-22T04:30:58.492Z,12.60
2022-10-22T04:33:26.511Z,12.60
2022-10-22T04:35:53.687Z,12.50
2022-10-22T04:38:20.813Z,12.50
2022-10-22T04:40:47.924Z,12.50
2022-10-22T04:43:15.070Z,12.50
2022-10-22T04:45:42.195Z,12.40
2022-10-22T04:48:09.356Z,12.40
2022-10-22T04:50:36.562Z,12.40
2022-10-22T04:53:03.699Z,12.40
2022-10-22T04:57:58.005Z,12.40
2022-10-22T05:00:25.119Z,12.40
2022-10-22T05:02:52.254Z,12.40
2022-10-22T05:05:19.450Z,12.30
2022-10-22T05:07:46.590Z,12.30
2022-10-22T05:10:13.746Z,12.30
2022-10-22T05:12:40.911Z,12.30
2022-10-22T05:15:08.820Z,12.30
2022-10-22T05:17:37.446Z,12.20
2022-10-22T05:20:05.436Z,12.20
2022-10-22T05:22:33.779Z,12.20
2022-10-22T05:25:01.048Z,12.20
2022-10-22T05:27:28.203Z,12.20
2022-10-22T05:29:55.420Z,12.20
2022-10-22T05:32:23.104Z,12.20
2022-10-22T05:34:50.280Z,12.10
2022-10-22T05:37:17.430Z,12.10
2022-10-22T05:39:44.614Z,12.10
2022-10-22T05:42:11.781Z,12.10
2022-10-22T05:44:40.817Z,12.10
2022-10-22T05:47:07.997Z,12.10
2022-10-22T05:49:35.423Z,12.10
2022-10-22T05:52:02.617Z,12.10
2022-10-22T05:54:29.772Z,12.10
2022-10-22T05:56:56.945Z,12.10
2022-10-22T05:59:24.081Z,12.10
2022-10-22T06:01:51.667Z,12.10
2022-10-22T06:04:18.946Z,12.00
2022-10-22T06:06:50.227Z,12.00
2022-10-22T06:09:18.603Z,12.00
2022-10-22T06:11:46.304Z,12.00
2022-10-22T06:14:13.746Z,12.10
2022-10-22T06:16:41.007Z,12.10
2022-10-22T06:19:08.288Z,12.00
2022-10-22T06:21:35.503Z,12.10
2022-10-22T06:24:02.659Z,12.00
2022-10-22T06:26:29.944Z,12.10
2022-10-22T06:28:57.295Z,12.00
2022-10-22T06:31:25.115Z,12.00
2022-10-22T06:33:52.304Z,12.10
2022-10-22T06:36:21.022Z,12.10
2022-10-22T06:38:50.839Z,12.10
2022-10-22T06:41:18.095Z,12.10
2022-10-22T06:43:47.797Z,12.10
2022-10-22T06:46:19.188Z,12.10
2022-10-22T06:48:50.979Z,12.10
2022-10-22T06:51:18.374Z,12.10
2022-10-22T06:53:45.778Z,12.10
2022-10-22T06:56:17.200Z,12.10
2022-10-22T06:58:47.569Z,12.10
2022-10-22T07:01:15.700Z,12.20
2022-10-22T07:03:43.183Z,12.20
2022-10-22T07:06:12.661Z,12.20
2022-10-22T07:08:40.211Z,12.20
2022-10-22T07:11:11.751Z,12.20
2022-10-22T07:13:39.090Z,12.20
2022-10-22T07:16:06.757Z,12.20
2022-10-22T07:18:34.336Z,12.20
2022-10-22T07:21:01.717Z,12.20
2022-10-22T07:23:29.238Z,12.20
2022-10-22T07:26:02.671Z,12.20
2022-10-22T07:28:34.084Z,12.30
2022-10-22T07:31:01.379Z,12.20
2022-10-22T07:33:28.660Z,12.30
2022-10-22T07:36:02.661Z,12.30
2022-10-22T07:38:29.962Z,12.30
2022-10-22T07:40:57.507Z,12.30
2022-10-22T07:43:24.890Z,12.30
2022-10-22T07:45:52.142Z,12.30
2022-10-22T07:48:19.438Z,12.30
2022-10-22T07:50:46.641Z,12.30
2022-10-22T07:53:13.928Z,12.40
2022-10-22T07:55:41.284Z,12.40
2022-10-22T07:58:08.552Z,12.50
2022-10-22T08:00:37.665Z,12.50
2022-10-22T08:03:05.276Z,12.60
2022-10-22T08:05:32.508Z,12.60
2022-10-22T08:07:59.677Z,12.70
2022-10-22T08:10:26.861Z,12.70
2022-10-22T08:12:54.046Z,12.70
2022-10-22T08:15:23.343Z,12.70
2022-10-22T08:17:50.507Z,12.80
2022-10-22T08:20:18.145Z,12.70
2022-10-22T08:22:45.393Z,12.70
2022-10-22T08:25:12.597Z,12.80
2022-10-22T08:27:40.126Z,12.80
2022-10-22T08:30:08.056Z,12.90
2022-10-22T08:32:35.234Z,12.80
2022-10-22T08:35:02.467Z,12.90
2022-10-22T08:37:29.623Z,12.90
2022-10-22T08:39:57.024Z,12.90
2022-10-22T08:42:43.002Z,12.90
2022-10-22T08:45:15.355Z,12.90
2022-10-22T08:48:06.797Z,12.90
2022-10-22T08:50:51.839Z,13.00
2022-10-22T08:53:21.414Z,13.00
2022-10-22T08:55:49.951Z,13.00
2022-10-22T08:58:37.705Z,13.00
2022-10-22T09:01:21.071Z,13.00
2022-10-22T09:03:55.089Z,13.10
2022-10-22T09:06:24.171Z,13.20
2022-10-22T09:08:51.424Z,13.20
2022-10-22T09:11:23.898Z,13.30
2022-10-22T09:13:51.249Z,13.30
2022-10-22T09:16:20.639Z,13.30
2022-10-22T09:19:13.285Z,13.30
2022-10-22T09:22:06.233Z,13.40
2022-10-22T09:24:36.999Z,13.40
2022-10-22T09:27:26.599Z,13.40
2022-10-22T09:29:53.873Z,13.40
2022-10-22T09:32:21.359Z,13.50
2022-10-22T09:34:49.102Z,13.60
2022-10-22T09:37:17.752Z,13.60
2022-10-22T09:39:46.832Z,13.70
2022-10-22T09:42:15.763Z,13.70
2022-10-22T09:44:46.308Z,13.70
2022-10-22T09:47:43.298Z,13.80
2022-10-22T09:50:16.863Z,13.80
2022-10-22T09:52:44.742Z,13.90
2022-10-22T09:55:18.371Z,13.90
2022-10-22T09:57:53.721Z,14.00
2022-10-22T10:00:21.471Z,14.00
2022-10-22T10:02:48.718Z,14.00
2022-10-22T10:05:27.474Z,14.00
2022-10-22T10:07:54.774Z,13.90
2022-10-22T10:10:35.377Z,14.00
2022-10-22T10:13:27.985Z,14.00
2022-10-22T10:16:18.444Z,14.10
2022-10-22T10:19:07.463Z,14.20
2022-10-22T10:21:43.954Z,14.20
2022-10-22T10:24:23.246Z,14.30
2022-10-22T10:26:53.862Z,14.30
2022-10-22T10:29:39.714Z,14.40
2022-10-22T10:32:23.560Z,14.40
2022-10-22T10:35:10.478Z,14.40
2022-10-22T10:38:45.294Z,14.50
2022-10-22T10:41:36.845Z,14.50
2022-10-22T10:44:25.195Z,14.50
2022-10-22T10:47:03.233Z,14.60
2022-10-22T10:49:31.472Z,14.70
2022-10-22T10:52:35.679Z,14.80
2022-10-22T10:55:30.125Z,14.90
2022-10-22T10:58:12.432Z,14.90
2022-10-22T11:01:07.181Z,14.90
2022-10-22T11:03:58.070Z,14.90
2022-10-22T11:06:50.099Z,14.90
2022-10-22T11:09:37.248Z,14.90
2022-10-22T11:12:06.856Z,14.90
2022-10-22T11:14:58.806Z,14.90
2022-10-22T11:17:29.814Z,14.90
2022-10-22T11:20:20.889Z,14.90
2022-10-22T11:23:18.765Z,15.00
2022-10-22T11:25:48.249Z,15.00
2022-10-22T11:28:32.163Z,15.10
2022-10-22T11:31:04.198Z,15.20
2022-10-22T11:33:45.864Z,15.30
2022-10-22T11:36:13.212Z,15.40
2022-10-22T11:38:43.035Z,15.50
2022-10-22T11:41:14.316Z,15.60
2022-10-22T11:44:10.891Z,15.60
2022-10-22T11:47:08.463Z,15.70
2022-10-22T11:49:43.546Z,15.80
2022-10-22T11:52:37.920Z,15.80
2022-10-22T11:55:30.143Z,15.80
2022-10-22T11:58:01.690Z,15.80
2022-10-22T12:00:46.903Z,16.00
2022-10-22T12:03:25.145Z,16.00
2022-10-22T12:06:20.849Z,16.00
2022-10-22T12:08:54.343Z,16.00
2022-10-22T12:11:39.731Z,16.10
2022-10-22T12:14:26.449Z,16.10
2022-10-22T12:16:57.904Z,16.20
2022-10-22T12:19:33.148Z,16.40
2022-10-22T12:22:13.396Z,16.40
2022-10-22T12:24:42.341Z,16.30
2022-10-22T12:27:30.194Z,16.20
2022-10-22T12:29:58.624Z,16.20
2022-10-22T12:32:41.132Z,16.20
2022-10-22T12:35:11.947Z,16.30
2022-10-22T12:37:39.239Z,16.30
2022-10-22T12:40:36.354Z,16.40
2022-10-22T12:43:17.994Z,16.50
2022-10-22T12:45:48.520Z,16.60
2022-10-22T12:48:34.344Z,16.60
2022-10-22T12:51:02.326Z,16.70
2022-10-22T12:53:42.172Z,16.70
2022-10-22T12:56:15.874Z,16.70
2022-10-22T12:58:49.378Z,16.80
2022-10-22T13:01:17.258Z,16.80
2022-10-22T13:03:46.870Z,16.80
2022-10-22T13:06:20.875Z,16.90
2022-10-22T13:09:00.427Z,16.90
2022-10-22T13:11:53.570Z,16.90
2022-10-22T13:14:28.203Z,16.90
2022-10-22T13:17:21.500Z,16.80
2022-10-22T13:19:54.754Z,16.70
2022-10-22T13:22:26.724Z,16.60
2022-10-22T13:24:54.058Z,16.70
2022-10-22T13:27:21.245Z,16.70
2022-10-22T13:29:48.514Z,16.60
2022-10-22T13:32:34.121Z,16.70
2022-10-22T13:35:02.125Z,16.70
2022-10-22T13:37:30.279Z,16.70
2022-10-22T13:39:57.498Z,16.70
2022-10-22T13:42:24.987Z,16.80
2022-10-22T13:44:52.290Z,16.80
2022-10-22T13:47:27.998Z,16.80
2022-10-22T13:50:00.306Z,16.90
2022-10-22T13:52:30.004Z,16.90
2022-10-22T13:54:57.322Z,16.90
2022-10-22T13:57:26.154Z,16.90
2022-10-22T13:59:53.380Z,16.90
2022-10-22T14:02:24.548Z,16.90
2022-10-22T14:04:51.920Z,16.90
2022-10-22T14:07:19.169Z,16.90
2022-10-22T14:09:46.482Z,16.90
2022-10-22T14:12:19.776Z,16.90
2022-10-22T14:14:49.629Z,16.80
2022-10-22T14:17:19.525Z,16.80
2022-10-22T14:19:48.179Z,16.70
2022-10-22T14:22:18.536Z,16.70
2022-10-22T14:24:46.194Z,16.60
2022-10-22T14:27:14.453Z,16.60
2022-10-22T14:29:41.801Z,16.50
2022-10-22T14:32:21.545Z,16.50
2022-10-22T14:34:51.074Z,16.50
2022-10-22T14:37:19.339Z,16.50
2022-10-22T14:39:55.010Z,16.50
2022-10-22T14:42:22.455Z,16.50
2022-10-22T14:44:49.938Z,16.40
2022-10-22T14:47:17.186Z,16.40
2022-10-22T14:49:44.496Z,16.40
2022-10-22T14:52:14.227Z,16.30
2022-10-22T14:54:42.461Z,16.30
2022-10-22T14:57:11.349Z,16.20
2022-10-22T14:59:38.542Z,16.20
2022-10-22T15:02:05.996Z,16.00
2022-10-22T15:04:33.325Z,16.00
2022-10-22T15:07:00.575Z,16.00
2022-10-22T15:09:27.847Z,16.00
2022-10-22T15:11:58.205Z,15.90
2022-10-22T15:14:25.455Z,15.90
2022-10-22T15:16:52.815Z,15.90
2022-10-22T15:19:20.135Z,15.90
2022-10-22T15:21:49.572Z,15.80
2022-10-22T15:24:16.920Z,15.80
2022-10-22T15:26:44.288Z,15.80
2022-10-22T15:29:14.191Z,15.80
2022-10-22T15:31:53.665Z,15.70
2022-10-22T15:34:25.487Z,15.70
2022-10-22T15:36:59.325Z,15.70
2022-10-22T15:39:26.866Z,15.70
2022-10-22T15:41:57.359Z,15.60
2022-10-22T15:44:28.956Z,15.60
2022-10-22T15:46:56.360Z,15.60
2022-10-22T15:49:28.414Z,15.60
2022-10-22T15:51:55.723Z,15.50
2022-10-22T15:54:28.563Z,15.50
2022-10-22T15:56:56.674Z,15.40
2022-10-22T15:59:24.385Z,15.40
2022-10-22T16:01:51.671Z,15.40
2022-10-22T16:04:18.923Z,15.30
2022-10-22T16:06:48.624Z,15.30
2022-10-22T16:09:18.445Z,15.20
2022-10-22T16:11:46.010Z,15.20
2022-10-22T16:14:15.025Z,15.10
2022-10-22T16:16:44.268Z,15.10
2022-10-22T16:19:12.411Z,15.10
2022-10-22T16:21:39.757Z,15.00
2022-10-22T16:24:08.027Z,15.00
2022-10-22T16:26:35.931Z,14.90
2022-10-22T16:29:04.879Z,14.90
2022-10-22T16:31:32.230Z,14.90
2022-10-22T16:33:59.461Z,14.80
2022-10-22T16:36:26.842Z,14.70
2022-10-22T16:38:54.141Z,14.70
2022-10-22T16:41:22.639Z,14.70
2022-10-22T16:43:51.148Z,14.60
2022-10-22T16:46:19.685Z,14.50
2022-10-22T16:48:47.487Z,14.50
2022-10-22T16:51:15.959Z,14.50
2022-10-22T16:53:43.293Z,14.40
2022-10-22T16:56:14.237Z,14.30
2022-10-22T16:58:46.087Z,14.30
2022-10-22T17:01:17.660Z,14.20
2022-10-22T17:03:45.421Z,14.20
2022-10-22T17:06:12.898Z,14.20
2022-10-22T17:08:40.386Z,14.10
2022-10-22T17:11:18.401Z,14.10
2022-10-22T17:13:46.743Z,14.10
2022-10-22T17:16:15.427Z,14.00
2022-10-22T17:18:43.492Z,14.00
2022-10-22T17:21:10.963Z,13.90
2022-10-22T17:23:38.503Z,13.90
2022-10-22T17:26:07.116Z,13.80
2022-10-22T17:28:35.778Z,13.80
2022-10-22T17:31:02.925Z,13.70
2022-10-22T17:33:31.395Z,13.70
2022-10-22T17:35:58.568Z,13.60
2022-10-22T17:38:25.797Z,13.70
2022-10-22T17:40:52.998Z,13.60
2022-10-22T17:43:20.157Z,13.60
2022-10-22T17:45:47.505Z,13.50
2022-10-22T17:48:14.632Z,13.50
2022-10-22T17:50:45.735Z,13.50
2022-10-22T17:53:14.157Z,13.40
2022-10-22T17:55:41.459Z,13.40
2022-10-22T17:58:08.799Z,13.40
2022-10-22T18:00:36.097Z,13.30
2022-10-22T18:03:03.530Z,13.30
2022-10-22T18:05:30.661Z,13.30
2022-10-22T18:07:57.928Z,13.20
2022-10-22T18:10:25.340Z,13.20
2022-10-22T18:12:52.670Z,13.20
2022-10-22T18:15:19.855Z,13.10
2022-10-22T18:17:50.104Z,13.10
2022-10-22T18:20:17.373Z,13.10
2022-10-22T18:22:45.484Z,13.00
2022-10-22T18:25:12.911Z,13.00
2022-10-22T18:27:40.487Z,13.00
2022-10-22T18:30:08.307Z,13.00
2022-10-22T18:32:35.474Z,12.90
2022-10-22T18:35:02.725Z,12.90
2022-10-22T18:37:30.438Z,12.90
2022-10-22T18:39:57.621Z,12.90
2022-10-22T18:42:26.449Z,12.90
2022-10-22T18:44:56.551Z,12.90
2022-10-22T18:47:23.980Z,12.80
2022-10-22T18:49:51.687Z,12.80
2022-10-22T18:52:19.077Z,12.80
2022-10-22T18:54:46.404Z,12.80
2022-10-22T18:57:13.577Z,12.80
2022-10-22T18:59:40.729Z,12.80
2022-10-22T19:02:09.411Z,12.80
2022-10-22T19:04:37.315Z,12.70
2022-10-22T19:07:05.211Z,12.70
2022-10-22T19:09:32.466Z,12.70
2022-10-22T19:11:59.822Z,12.70
2022-10-22T19:14:27.191Z,12.70
2022-10-22T19:16:54.331Z,12.70
2022-10-22T19:19:21.942Z,12.60
2022-10-22T19:21:49.206Z,12.60
2022-10-22T19:24:17.382Z,12.60
2022-10-22T19:26:44.777Z,12.60
2022-10-22T19:29:12.114Z,12.50
2022-10-22T19:31:40.778Z,12.50
2022-10-22T19:34:08.143Z,12.50
2022-10-22T19:36:35.857Z,12.50
2022-10-22T19:39:03.149Z,12.40
2022-10-22T19:41:30.924Z,12.40
2022-10-22T19:43:58.402Z,12.50
2022-10-22T19:46:25.799Z,12.40
2022-10-22T19:48:53.118Z,12.40
2022-10-22T19:51:21.527Z,12.40
2022-10-22T19:53:49.012Z,12.40
2022-10-22T19:56:20.436Z,12.40
2022-10-22T19:58:47.726Z,12.40
2022-10-22T20:01:16.147Z,12.40
2022-10-22T20:03:43.435Z,12.30
2022-10-22T20:06:11.310Z,12.30
2022-10-22T20:08:38.917Z,12.30
2022-10-22T20:11:10.749Z,12.30
2022-10-22T20:16:05.603Z,12.30
2022-10-22T20:18:35.875Z,12.30
2022-10-22T20:21:04.957Z,12.20
2022-10-22T20:23:32.378Z,12.20
2022-10-22T20:25:59.647Z,12.20
2022-10-22T20:28:27.016Z,12.20
2022-10-22T20:30:54.178Z,12.20
2022-10-22T20:33:21.391Z,12.20
2022-10-22T20:36:01.758Z,12.10
2022-10-22T20:38:29.289Z,12.10
2022-10-22T20:41:04.037Z,12.10
2022-10-22T20:43:31.224Z,12.10
2022-10-22T20:45:58.508Z,12.10
2022-10-22T20:48:29.306Z,12.10
2022-10-22T20:50:59.364Z,12.00
2022-10-22T20:53:27.100Z,12.00
2022-10-22T20:55:56.650Z,12.00
2022-10-22T20:58:26.687Z,12.00
2022-10-22T21:00:54.573Z,12.00
2022-10-22T21:03:21.914Z,12.00
2022-10-22T21:05:49.213Z,12.00
2022-10-22T21:08:17.469Z,12.00
2022-10-22T21:10:46.368Z,12.00
2022-10-22T21:13:13.953Z,11.90
2022-10-22T21:15:41.293Z,11.90
2022-10-22T21:18:08.653Z,11.90
2022-10-22T21:20:35.862Z,11.90
2022-10-22T21:23:03.067Z,11.90
2022-10-22T21:25:30.242Z,11.90
2022-10-22T21:27:57.537Z,11.80
2022-10-22T21:30:24.691Z,11.90
2022-10-22T21:32:52.082Z,11.90
2022-10-22T21:35:19.241Z,11.80
2022-10-22T21:37:46.450Z,11.80
2022-10-22T21:40:13.688Z,11.80
2022-10-22T21:42:41.071Z,11.80
2022-10-22T21:45:12.382Z,11.80
2022-10-22T21:47:42.235Z,11.80
2022-10-22T21:50:09.722Z,11.80
2022-10-22T21:52:37.135Z,11.80
2022-10-22T21:55:04.586Z,11.80
2022-10-22T21:57:31.709Z,11.80
2022-10-22T21:59:58.967Z,11.70
2022-10-22T22:02:28.497Z,11.80
2022-10-22T22:04:55.929Z,11.70
2022-10-22T22:07:23.120Z,11.70
2022-10-22T22:09:51.103Z,11.80
2022-10-22T22:12:18.648Z,11.70
2022-10-22T22:14:45.865Z,11.70
2022-10-22T22:17:15.272Z,11.70
2022-10-22T22:19:42.595Z,11.70
2022-10-22T22:22:09.806Z,11.70
2022-10-22T22:24:38.327Z,11.60
2022-10-22T22:27:05.746Z,11.70
2022-10-22T22:29:32.927Z,11.60
2022-10-22T22:32:00.056Z,11.60
2022-10-22T22:34:27.421Z,11.60
2022-10-22T22:36:54.591Z,11.60
2022-10-22T22:39:24.971Z,11.60
2022-10-22T22:41:52.227Z,11.50
2022-10-22T22:44:19.686Z,11.50
2022-10-22T22:46:46.894Z,11.50
2022-10-22T22:49:14.166Z,11.50
2022-10-22T22:51:41.815Z,11.40
2022-10-22T22:54:09.112Z,11.40
2022-10-22T22:56:36.947Z,11.40
2022-10-22T22:59:04.612Z,11.40
2022-10-22T23:01:36.547Z,11.40
2022-10-22T23:04:13.876Z,11.40
2022-10-22T23:06:41.107Z,11.40
2022-10-22T23:09:09.981Z,11.40
2022-10-22T23:11:37.401Z,11.40
2022-10-22T23:14:05.448Z,11.40
2022-10-22T23:16:34.105Z,11.30
2022-10-22T23:19:01.515Z,11.30
2022-10-22T23:21:33.622Z,11.20
2022-10-22T23:24:02.522Z,11.20
2022-10-22T23:26:34.274Z,11.20
2022-10-22T23:29:02.512Z,11.20
2022-10-22T23:31:29.765Z,11.20
2022-10-22T23:33:56.965Z,11.20
2022-10-22T23:36:24.211Z,11.20
2022-10-22T23:38:51.358Z,11.20
2022-10-22T23:41:18.670Z,11.20
2022-10-22T23:43:45.926Z,11.10
2022-10-22T23:46:13.429Z,11.10
2022-10-22T23:48:40.607Z,11.10
2022-10-22T23:51:11.744Z,11.10
2022-10-22T23:53:39.298Z,11.10
2022-10-22T23:56:08.055Z,11.10
2022-10-22T23:58:35.618Z,11.10
